createdAt,value
2019-05-13T00:01:07.083Z,7.20
2019-05-13T00:03:38.902Z,7.60
2019-05-13T00:06:13.288Z,7.47
2019-05-13T00:08:45.070Z,7.60
2019-05-13T00:11:17.354Z,8.27
2019-05-13T00:13:49.961Z,7.87
2019-05-13T00:16:23.456Z,8.00
2019-05-13T00:18:55.973Z,8.10
2019-05-13T00:21:28.366Z,7.73
2019-05-13T00:24:00.741Z,7.87
2019-05-13T00:26:34.018Z,8.37
2019-05-13T00:29:06.293Z,7.93
2019-05-13T00:31:38.609Z,8.17
2019-05-13T00:34:11.037Z,8.20
2019-05-13T00:36:44.596Z,7.80
2019-05-13T00:39:16.861Z,8.17
2019-05-13T00:41:50.082Z,7.80
2019-05-13T00:44:24.290Z,7.87
2019-05-13T00:46:56.270Z,7.77
2019-05-13T00:49:28.752Z,8.03
2019-05-13T00:52:01.028Z,8.23
2019-05-13T00:54:34.164Z,7.70
2019-05-13T00:57:06.825Z,8.10
2019-05-13T00:59:39.001Z,8.67
2019-05-13T01:02:13.970Z,7.87
2019-05-13T01:04:45.201Z,8.20
2019-05-13T01:07:27.678Z,8.07
2019-05-13T01:09:53.401Z,8.27
2019-05-13T01:12:25.564Z,8.80
2019-05-13T01:14:57.740Z,8.37
2019-05-13T01:17:30.317Z,7.70
2019-05-13T01:20:04.132Z,8.07
2019-05-13T01:22:36.603Z,8.53
2019-05-13T01:25:08.973Z,8.20
2019-05-13T01:27:43.974Z,8.37
2019-05-13T01:30:15.736Z,7.80
2019-05-13T01:32:47.924Z,8.30
2019-05-13T01:35:20.153Z,8.60
2019-05-13T01:37:53.877Z,8.50
2019-05-13T01:40:26.265Z,8.13
2019-05-13T01:42:58.614Z,8.83
2019-05-13T01:45:33.475Z,8.07
2019-05-13T01:48:07.399Z,8.20
2019-05-13T01:50:38.752Z,8.83
2019-05-13T01:53:14.272Z,8.40
2019-05-13T01:55:45.814Z,8.60
2019-05-13T01:58:18.145Z,7.73
2019-05-13T02:00:51.775Z,8.40
2019-05-13T02:03:24.800Z,8.20
2019-05-13T02:05:57.310Z,8.80
2019-05-13T02:08:29.608Z,8.43
2019-05-13T02:11:04.050Z,8.13
2019-05-13T02:13:36.276Z,8.40
2019-05-13T02:16:08.643Z,8.00
2019-05-13T02:18:40.967Z,8.40
2019-05-13T02:21:13.937Z,8.20
2019-05-13T02:23:46.276Z,8.70
2019-05-13T02:26:18.540Z,8.53
2019-05-13T02:28:51.164Z,8.30
2019-05-13T02:31:39.139Z,8.40
2019-05-13T02:33:57.350Z,8.70
2019-05-13T02:36:32.677Z,8.50
2019-05-13T02:39:05.978Z,8.80
2019-05-13T02:41:38.314Z,8.47
2019-05-13T02:44:12.202Z,8.20
2019-05-13T02:46:44.862Z,8.80
2019-05-13T02:49:17.165Z,8.00
2019-05-13T02:51:49.354Z,8.80
2019-05-13T02:54:22.932Z,8.90
2019-05-13T02:56:55.395Z,8.70
2019-05-13T02:59:27.669Z,8.63
2019-05-13T03:02:03.199Z,8.67
2019-05-13T03:04:33.963Z,8.50
2019-05-13T03:07:06.120Z,8.90
2019-05-13T03:09:38.395Z,9.27
2019-05-13T03:12:12.981Z,9.70
2019-05-13T03:14:47.882Z,8.60
2019-05-13T03:17:24.205Z,9.00
2019-05-13T03:19:58.548Z,8.93
2019-05-13T03:22:32.634Z,8.90
2019-05-13T03:25:05.100Z,8.27
2019-05-13T03:27:37.433Z,8.87
2019-05-13T03:30:15.763Z,8.83
2019-05-13T03:32:53.283Z,9.23
2019-05-13T03:35:18.601Z,9.20
2019-05-13T03:37:52.782Z,8.33
2019-05-13T03:40:24.795Z,8.37
2019-05-13T03:43:02.587Z,8.70
2019-05-13T03:45:35.589Z,9.00
2019-05-13T03:48:07.794Z,8.60
2019-05-13T03:50:43.155Z,8.63
2019-05-13T03:53:14.418Z,8.50
2019-05-13T03:55:47.319Z,8.43
2019-05-13T03:58:23.648Z,9.50
2019-05-13T04:00:53.972Z,9.33
2019-05-13T04:03:26.518Z,9.40
2019-05-13T04:05:59.023Z,9.87
2019-05-13T04:08:32.650Z,9.17
2019-05-13T04:11:05.238Z,9.23
2019-05-13T04:13:37.657Z,9.00
2019-05-13T04:16:12.809Z,9.17
2019-05-13T04:18:43.850Z,9.83
2019-05-13T04:21:18.121Z,8.73
2019-05-13T04:23:53.116Z,9.33
2019-05-13T04:26:25.769Z,9.30
2019-05-13T04:28:58.575Z,9.90
2019-05-13T04:31:33.273Z,9.27
2019-05-13T04:34:04.816Z,9.47
2019-05-13T04:36:37.055Z,8.83
2019-05-13T04:39:12.936Z,8.77
2019-05-13T04:41:44.517Z,9.17
2019-05-13T04:44:16.738Z,8.93
2019-05-13T04:46:52.154Z,9.50
2019-05-13T04:49:23.664Z,9.03
2019-05-13T04:51:56.215Z,8.73
2019-05-13T04:54:28.948Z,10.17
2019-05-13T04:57:02.975Z,9.20
2019-05-13T04:59:40.106Z,8.50
2019-05-13T05:02:40.131Z,9.07
2019-05-13T05:05:26.851Z,8.63
2019-05-13T05:08:12.557Z,8.63
2019-05-13T05:11:22.315Z,8.47
2019-05-13T05:14:23.190Z,8.77
2019-05-13T05:17:43.072Z,9.00
2019-05-13T05:20:29.238Z,8.50
2019-05-13T05:23:45.701Z,9.23
2019-05-13T05:26:55.655Z,13.97
2019-05-13T05:29:55.698Z,10.70
2019-05-13T05:32:57.710Z,8.90
2019-05-13T05:35:52.477Z,8.80
2019-05-13T05:38:40.334Z,10.90
2019-05-13T05:41:16.806Z,8.43
2019-05-13T05:43:52.252Z,8.60
2019-05-13T05:46:25.024Z,9.00
2019-05-13T05:49:02.092Z,8.20
2019-05-13T05:51:34.940Z,8.77
2019-05-13T05:54:14.295Z,11.73
2019-05-13T05:56:45.006Z,12.50
2019-05-13T05:59:21.777Z,8.87
2019-05-13T06:01:55.010Z,8.77
2019-05-13T06:04:27.728Z,8.00
2019-05-13T06:07:03.282Z,8.90
2019-05-13T06:09:34.371Z,8.20
2019-05-13T06:12:06.584Z,8.50
2019-05-13T06:14:42.319Z,8.43
2019-05-13T06:17:14.190Z,8.80
2019-05-13T06:19:46.593Z,8.43
2019-05-13T06:22:21.460Z,8.33
2019-05-13T06:24:52.953Z,8.27
2019-05-13T06:27:25.929Z,8.03
2019-05-13T06:30:01.943Z,8.07
2019-05-13T06:32:33.363Z,9.43
2019-05-13T06:35:06.013Z,8.77
2019-05-13T06:37:38.778Z,8.07
2019-05-13T06:40:12.397Z,8.30
2019-05-13T06:42:51.975Z,8.00
2019-05-13T06:45:24.108Z,8.00
2019-05-13T06:47:56.844Z,8.13
2019-05-13T06:50:29.230Z,8.83
2019-05-13T06:53:02.134Z,8.30
2019-05-13T06:55:34.949Z,7.57
2019-05-13T06:58:07.365Z,7.97
2019-05-13T07:00:42.750Z,8.63
2019-05-13T07:03:15.158Z,10.17
2019-05-13T07:05:49.375Z,8.93
2019-05-13T07:08:22.397Z,10.27
2019-05-13T07:10:54.837Z,7.90
2019-05-13T07:13:27.121Z,8.67
2019-05-13T07:16:01.398Z,7.97
2019-05-13T07:18:33.745Z,8.20
2019-05-13T07:21:06.214Z,9.70
2019-05-13T07:23:38.492Z,8.03
2019-05-13T07:26:12.267Z,7.67
2019-05-13T07:28:44.869Z,7.33
2019-05-13T07:31:17.266Z,7.73
2019-05-13T07:33:51.739Z,7.20
2019-05-13T07:36:23.820Z,7.17
2019-05-13T07:38:56.630Z,7.20
2019-05-13T07:41:38.221Z,7.37
2019-05-13T07:44:03.758Z,6.77
2019-05-13T07:46:36.033Z,8.70
2019-05-13T07:49:08.254Z,6.57
2019-05-13T07:51:42.023Z,7.23
2019-05-13T07:54:14.566Z,6.80
2019-05-13T07:56:47.516Z,8.20
2019-05-13T07:59:21.132Z,6.97
2019-05-13T08:01:53.842Z,6.80
2019-05-13T08:04:26.830Z,6.43
2019-05-13T08:07:01.741Z,6.00
2019-05-13T08:09:33.147Z,7.20
2019-05-13T08:12:10.898Z,6.10
2019-05-13T08:14:43.273Z,7.70
2019-05-13T08:17:14.873Z,6.20
2019-05-13T08:19:47.252Z,5.60
2019-05-13T08:22:22.036Z,6.10
2019-05-13T08:24:54.482Z,10.20
2019-05-13T08:27:33.653Z,6.03
2019-05-13T08:30:01.671Z,5.97
2019-05-13T08:32:35.283Z,8.63
2019-05-13T08:35:09.028Z,6.53
2019-05-13T08:37:42.377Z,10.37
2019-05-13T08:40:19.993Z,6.80
2019-05-13T08:42:52.121Z,6.57
2019-05-13T08:45:26.009Z,10.03
2019-05-13T08:47:58.485Z,5.90
2019-05-13T08:50:32.406Z,7.83
2019-05-13T08:53:04.897Z,7.67
2019-05-13T08:55:37.099Z,6.53
2019-05-13T08:58:12.259Z,9.20
2019-05-13T09:00:52.881Z,7.07
2019-05-13T09:03:26.011Z,7.67
2019-05-13T09:05:59.172Z,6.20
2019-05-13T09:08:32.045Z,6.40
2019-05-13T09:11:04.533Z,7.57
2019-05-13T09:13:36.769Z,5.87
2019-05-13T09:16:09.186Z,6.73
2019-05-13T09:18:42.616Z,6.60
2019-05-13T09:21:15.476Z,5.80
2019-05-13T09:23:47.722Z,6.10
2019-05-13T09:26:22.368Z,6.73
2019-05-13T09:28:54.289Z,7.10
2019-05-13T09:31:26.565Z,7.17
2019-05-13T09:34:01.273Z,6.47
2019-05-13T09:36:32.900Z,7.47
2019-05-13T09:39:07.390Z,6.33
2019-05-13T09:41:41.986Z,7.87
2019-05-13T09:44:13.733Z,6.47
2019-05-13T09:46:46.023Z,6.30
2019-05-13T09:49:20.046Z,5.80
2019-05-13T09:51:52.374Z,6.63
2019-05-13T09:54:24.820Z,6.73
2019-05-13T09:56:57.270Z,7.53
2019-05-13T09:59:31.941Z,5.40
2019-05-13T10:02:04.070Z,7.43
2019-05-13T10:04:36.418Z,6.40
2019-05-13T10:07:08.657Z,5.60
2019-05-13T10:09:43.010Z,5.93
2019-05-13T10:12:15.114Z,5.60
2019-05-13T10:14:47.241Z,5.23
2019-05-13T10:17:21.938Z,5.07
2019-05-13T10:19:53.777Z,5.50
2019-05-13T10:22:27.123Z,6.33
2019-05-13T10:25:02.125Z,5.50
2019-05-13T10:27:34.433Z,5.53
2019-05-13T10:30:07.871Z,5.27
2019-05-13T10:32:42.658Z,5.70
2019-05-13T10:35:14.521Z,5.67
2019-05-13T10:37:47.019Z,5.37
2019-05-13T10:40:19.814Z,6.20
2019-05-13T10:42:53.901Z,5.63
2019-05-13T10:45:27.145Z,5.30
2019-05-13T10:48:02.968Z,7.97
2019-05-13T10:50:37.376Z,6.37
2019-05-13T10:53:12.245Z,5.47
2019-05-13T10:55:44.483Z,6.63
2019-05-13T10:58:17.073Z,5.00
2019-05-13T11:00:54.119Z,5.43
2019-05-13T11:03:32.252Z,5.20
2019-05-13T11:06:03.408Z,5.73
2019-05-13T11:08:35.914Z,5.10
2019-05-13T11:11:08.388Z,5.60
2019-05-13T11:13:52.377Z,4.97
2019-05-13T11:16:14.836Z,5.30
2019-05-13T11:18:47.073Z,5.17
2019-05-13T11:21:22.275Z,5.27
2019-05-13T11:23:53.231Z,5.00
2019-05-13T11:26:25.883Z,5.00
2019-05-13T11:28:59.550Z,5.33
2019-05-13T11:31:32.893Z,5.70
2019-05-13T11:34:05.366Z,4.93
2019-05-13T11:36:37.649Z,4.83
2019-05-13T11:39:13.014Z,6.10
2019-05-13T11:41:44.337Z,4.70
2019-05-13T11:44:17.201Z,4.90
2019-05-13T11:46:52.730Z,4.77
2019-05-13T11:49:23.884Z,5.73
2019-05-13T11:51:56.389Z,6.27
2019-05-13T11:54:28.975Z,4.80
2019-05-13T11:57:05.953Z,5.10
2019-05-13T11:59:35.396Z,5.40
2019-05-13T12:02:07.801Z,5.73
2019-05-13T12:04:43.069Z,6.03
2019-05-13T12:07:14.460Z,4.83
2019-05-13T12:09:46.893Z,4.80
2019-05-13T12:12:19.370Z,4.63
2019-05-13T12:15:21.010Z,5.13
2019-05-13T12:17:25.734Z,5.13
2019-05-13T12:19:58.148Z,4.73
2019-05-13T12:22:30.470Z,4.63
2019-05-13T12:25:02.729Z,4.60
2019-05-13T12:27:35.278Z,4.83
2019-05-13T12:30:07.799Z,4.67
2019-05-13T12:32:43.759Z,4.80
2019-05-13T12:35:14.305Z,4.83
2019-05-13T12:37:46.728Z,4.40
2019-05-13T12:40:19.006Z,5.20
2019-05-13T12:42:53.955Z,4.73
2019-05-13T12:45:25.820Z,4.60
2019-05-13T12:48:02.939Z,4.50
2019-05-13T12:50:34.848Z,6.37
2019-05-13T12:53:12.260Z,3.70
2019-05-13T12:55:41.427Z,4.87
2019-05-13T12:58:13.792Z,4.93
2019-05-13T13:00:46.256Z,4.40
2019-05-13T13:03:18.933Z,4.63
2019-05-13T13:05:51.268Z,4.00
2019-05-13T13:08:38.352Z,4.13
2019-05-13T13:10:57.476Z,4.20
2019-05-13T13:13:54.068Z,3.87
2019-05-13T13:16:03.951Z,4.10
2019-05-13T13:18:36.528Z,3.87
2019-05-13T13:21:08.772Z,4.23
2019-05-13T13:23:42.917Z,4.10
2019-05-13T13:26:16.639Z,4.93
2019-05-13T13:28:48.952Z,5.30
2019-05-13T13:31:24.947Z,4.23
2019-05-13T13:33:55.852Z,4.13
2019-05-13T13:36:28.341Z,5.43
2019-05-13T13:39:03.130Z,4.83
2019-05-13T13:41:35.561Z,7.13
2019-05-13T13:44:07.845Z,3.97
2019-05-13T13:46:44.612Z,3.70
2019-05-13T13:49:14.853Z,6.57
2019-05-13T13:51:47.089Z,3.83
2019-05-13T13:54:22.164Z,3.90
2019-05-13T13:56:56.164Z,3.90
2019-05-13T13:59:28.956Z,3.43
2019-05-13T14:02:05.535Z,4.23
2019-05-13T14:04:35.529Z,5.20
2019-05-13T14:07:25.317Z,4.07
2019-05-13T14:09:41.991Z,3.50
2019-05-13T14:12:14.364Z,3.67
2019-05-13T14:14:46.722Z,5.70
2019-05-13T14:17:18.915Z,3.40
2019-05-13T14:19:52.327Z,4.30
2019-05-13T14:22:24.978Z,3.67
2019-05-13T14:24:57.671Z,3.70
2019-05-13T14:27:31.437Z,3.97
2019-05-13T14:30:03.828Z,4.67
2019-05-13T14:32:36.291Z,4.77
2019-05-13T14:35:11.549Z,4.43
2019-05-13T14:37:42.672Z,3.90
2019-05-13T14:40:15.353Z,3.83
2019-05-13T14:42:47.729Z,4.33
2019-05-13T14:45:21.318Z,4.27
2019-05-13T14:47:53.796Z,4.10
2019-05-13T14:50:27.220Z,5.37
2019-05-13T14:53:01.572Z,4.10
2019-05-13T14:55:33.474Z,5.43
2019-05-13T14:58:06.006Z,4.20
2019-05-13T15:00:38.260Z,4.03
2019-05-13T15:03:12.838Z,6.70
2019-05-13T15:05:44.433Z,4.70
2019-05-13T15:08:16.717Z,3.90
2019-05-13T15:10:48.962Z,10.53
2019-05-13T15:13:21.200Z,4.23
2019-05-13T15:15:54.922Z,5.10
2019-05-13T15:18:27.159Z,3.93
2019-05-13T15:21:01.761Z,4.57
2019-05-13T15:23:34.129Z,5.10
2019-05-13T15:26:06.616Z,6.90
2019-05-13T15:28:39.003Z,6.83
2019-05-13T15:31:11.626Z,5.40
2019-05-13T15:33:43.891Z,4.97
2019-05-13T15:36:16.345Z,5.70
2019-05-13T15:38:48.440Z,4.83
2019-05-13T15:41:20.794Z,4.70
2019-05-13T15:43:52.988Z,4.53
2019-05-13T15:46:25.286Z,4.73
2019-05-13T15:48:57.588Z,5.43
2019-05-13T15:51:31.442Z,6.00
2019-05-13T15:54:04.087Z,4.57
2019-05-13T15:56:36.585Z,4.90
2019-05-13T15:59:09.160Z,4.60
2019-05-13T16:01:41.558Z,4.37
2019-05-13T16:04:13.916Z,4.47
2019-05-13T16:06:46.194Z,4.30
2019-05-13T16:09:19.437Z,5.03
2019-05-13T16:11:52.558Z,4.40
2019-05-13T16:14:25.133Z,5.00
2019-05-13T16:16:57.649Z,4.73
2019-05-13T16:19:32.677Z,5.20
2019-05-13T16:22:04.372Z,4.67
2019-05-13T16:24:36.898Z,5.03
2019-05-13T16:27:11.605Z,6.43
2019-05-13T16:29:43.669Z,4.80
2019-05-13T16:32:15.901Z,4.80
2019-05-13T16:34:48.155Z,4.70
2019-05-13T16:37:22.009Z,4.80
2019-05-13T16:39:55.413Z,5.23
2019-05-13T16:42:28.290Z,4.77
2019-05-13T16:45:00.875Z,4.60
2019-05-13T16:47:33.189Z,4.77
2019-05-13T16:50:06.226Z,6.60
2019-05-13T16:52:38.538Z,5.07
2019-05-13T16:55:12.898Z,4.83
2019-05-13T16:57:46.186Z,5.00
2019-05-13T17:00:18.598Z,4.70
2019-05-13T17:02:51.801Z,5.60
2019-05-13T17:05:24.212Z,5.30
2019-05-13T17:07:56.486Z,5.10
2019-05-13T17:10:28.733Z,4.87
2019-05-13T17:13:03.034Z,5.10
2019-05-13T17:15:35.418Z,6.30
2019-05-13T17:18:15.117Z,5.57
2019-05-13T17:20:48.036Z,6.13
2019-05-13T17:23:20.348Z,5.10
2019-05-13T17:25:53.142Z,6.33
2019-05-13T17:28:25.413Z,5.17
2019-05-13T17:30:57.676Z,5.10
2019-05-13T17:33:31.996Z,5.40
2019-05-13T17:36:04.670Z,5.83
2019-05-13T17:38:37.134Z,5.50
2019-05-13T17:41:09.388Z,5.67
2019-05-13T17:43:41.796Z,5.47
2019-05-13T17:46:14.370Z,6.07
2019-05-13T17:48:46.835Z,5.67
2019-05-13T17:51:19.109Z,5.30
2019-05-13T17:53:52.038Z,6.00
2019-05-13T17:56:24.508Z,5.70
2019-05-13T17:58:56.912Z,5.57
2019-05-13T18:01:31.595Z,5.63
2019-05-13T18:04:03.232Z,5.77
2019-05-13T18:06:36.061Z,5.70
2019-05-13T18:09:08.599Z,5.50
2019-05-13T18:11:41.795Z,6.40
2019-05-13T18:14:14.462Z,7.13
2019-05-13T18:16:46.868Z,6.90
2019-05-13T18:19:19.137Z,6.97
2019-05-13T18:21:52.801Z,6.80
2019-05-13T18:24:25.113Z,9.77
2019-05-13T18:26:57.713Z,10.17
2019-05-13T18:29:31.606Z,8.27
2019-05-13T18:32:04.479Z,8.00
2019-05-13T18:34:36.955Z,7.27
2019-05-13T18:37:11.605Z,6.77
2019-05-13T18:39:43.677Z,6.73
2019-05-13T18:42:15.915Z,6.40
2019-05-13T18:44:48.322Z,6.77
2019-05-13T18:47:22.152Z,6.40
2019-05-13T18:49:55.348Z,6.63
2019-05-13T18:52:31.319Z,6.47
2019-05-13T18:55:03.882Z,6.13
2019-05-13T18:57:36.084Z,5.73
2019-05-13T19:00:11.008Z,6.00
2019-05-13T19:02:42.773Z,6.10
2019-05-13T19:05:15.103Z,6.30
2019-05-13T19:07:47.347Z,6.80
2019-05-13T19:10:21.848Z,6.87
2019-05-13T19:12:53.890Z,6.10
2019-05-13T19:15:26.684Z,6.80
2019-05-13T19:17:58.928Z,6.60
2019-05-13T19:20:31.390Z,6.80
2019-05-13T19:23:03.749Z,6.43
2019-05-13T19:25:36.167Z,6.80
2019-05-13T19:28:08.552Z,6.90
2019-05-13T19:30:41.279Z,6.83
2019-05-13T19:33:13.721Z,8.20
2019-05-13T19:35:47.357Z,8.17
2019-05-13T19:38:21.159Z,7.70
2019-05-13T19:40:54.583Z,7.63
2019-05-13T19:43:27.360Z,7.07
2019-05-13T19:46:01.519Z,7.60
2019-05-13T19:48:34.285Z,8.57
2019-05-13T19:51:06.849Z,7.83
2019-05-13T19:53:41.511Z,7.90
2019-05-13T19:56:16.524Z,7.20
2019-05-13T19:58:49.682Z,7.77
2019-05-13T20:01:24.254Z,7.67
2019-05-13T20:04:02.134Z,7.63
2019-05-13T20:06:35.120Z,8.67
2019-05-13T20:09:08.496Z,7.87
2019-05-13T20:11:42.008Z,8.90
2019-05-13T20:14:14.704Z,7.80
2019-05-13T20:16:47.327Z,7.50
2019-05-13T20:19:22.193Z,6.93
2019-05-13T20:21:54.146Z,7.07
2019-05-13T20:24:26.531Z,6.70
2019-05-13T20:26:58.736Z,7.37
2019-05-13T20:29:31.137Z,7.20
2019-05-13T20:32:03.523Z,7.00
2019-05-13T20:34:36.009Z,7.83
2019-05-13T20:37:08.265Z,7.57
2019-05-13T20:39:42.577Z,7.60
2019-05-13T20:42:16.641Z,7.00
2019-05-13T20:44:51.332Z,6.90
2019-05-13T20:47:23.145Z,7.10
2019-05-13T20:50:01.513Z,7.50
2019-05-13T20:52:31.371Z,7.20
2019-05-13T20:55:04.247Z,7.00
2019-05-13T20:57:36.463Z,7.60
2019-05-13T21:00:08.791Z,7.90
2019-05-13T21:02:42.119Z,7.40
2019-05-13T21:05:15.392Z,7.13
2019-05-13T21:07:47.784Z,7.73
2019-05-13T21:10:21.195Z,7.10
2019-05-13T21:12:53.569Z,7.50
2019-05-13T21:15:26.044Z,7.47
2019-05-13T21:17:58.657Z,7.40
2019-05-13T21:20:32.076Z,7.23
2019-05-13T21:23:04.694Z,7.43
2019-05-13T21:25:37.877Z,7.67
2019-05-13T21:28:11.397Z,7.70
2019-05-13T21:30:44.981Z,7.60
2019-05-13T21:33:17.391Z,8.83
2019-05-13T21:35:51.156Z,8.30
2019-05-13T21:38:23.491Z,7.60
2019-05-13T21:40:55.974Z,8.70
2019-05-13T21:43:28.368Z,9.13
2019-05-13T21:46:01.973Z,8.30
2019-05-13T21:48:34.582Z,8.97
2019-05-13T21:51:06.817Z,8.27
2019-05-13T21:53:41.283Z,8.47
2019-05-13T21:56:13.111Z,8.90
2019-05-13T21:58:45.413Z,9.07
2019-05-13T22:01:17.589Z,8.87
2019-05-13T22:03:51.417Z,8.83
2019-05-13T22:06:23.924Z,9.27
2019-05-13T22:08:56.360Z,9.23
2019-05-13T22:11:28.691Z,9.20
2019-05-13T22:14:01.784Z,9.03
2019-05-13T22:16:34.057Z,9.40
2019-05-13T22:19:06.521Z,9.50
2019-05-13T22:21:38.730Z,9.27
2019-05-13T22:24:11.642Z,9.20
2019-05-13T22:26:43.955Z,9.40
2019-05-13T22:29:16.197Z,9.40
2019-05-13T22:31:48.382Z,9.20
2019-05-13T22:34:21.173Z,9.40
2019-05-13T22:36:53.448Z,8.77
2019-05-13T22:39:25.931Z,9.93
2019-05-13T22:41:57.950Z,8.90
2019-05-13T22:44:32.247Z,9.20
2019-05-13T22:47:04.229Z,9.40
2019-05-13T22:49:36.459Z,9.13
2019-05-13T22:52:11.282Z,9.10
2019-05-13T22:54:42.838Z,8.67
2019-05-13T22:57:15.212Z,8.50
2019-05-13T22:59:47.516Z,9.30
2019-05-13T23:02:21.812Z,8.97
2019-05-13T23:04:53.725Z,9.23
2019-05-13T23:07:26.076Z,8.77
2019-05-13T23:09:58.350Z,9.07
2019-05-13T23:12:31.427Z,8.90
2019-05-13T23:15:04.051Z,9.13
2019-05-13T23:17:36.249Z,8.80
2019-05-13T23:20:08.833Z,9.20
2019-05-13T23:22:41.495Z,8.70
2019-05-13T23:25:14.015Z,8.97
2019-05-13T23:27:46.244Z,8.93
2019-05-13T23:30:18.621Z,8.60
2019-05-13T23:32:51.744Z,9.17
2019-05-13T23:35:24.225Z,9.03
2019-05-13T23:37:56.512Z,9.60
2019-05-13T23:40:28.760Z,9.60
2019-05-13T23:43:02.139Z,9.80
2019-05-13T23:45:34.489Z,9.77
2019-05-13T23:48:06.889Z,10.07
2019-05-13T23:50:41.361Z,9.90
2019-05-13T23:53:13.201Z,9.83
2019-05-13T23:55:45.474Z,9.43
2019-05-13T23:58:17.681Z,9.57
